sensor_id;sensor_type;location;lat;lon;timestamp;temperature;humidity
25352;DHT22;13304;48.464;8.712;2023-04-15T00:00:07;7.40;73.50
25352;DHT22;13304;48.464;8.712;2023-04-15T00:02:34;7.40;73.40
25352;DHT22;13304;48.464;8.712;2023-04-15T00:05:00;7.40;74.30
25352;DHT22;13304;48.464;8.712;2023-04-15T00:07:26;7.30;74.00
25352;DHT22;13304;48.464;8.712;2023-04-15T00:09:52;7.30;74.20
25352;DHT22;13304;48.464;8.712;2023-04-15T00:12:20;7.30;74.30
25352;DHT22;13304;48.464;8.712;2023-04-15T00:14:46;7.20;74.70
25352;DHT22;13304;48.464;8.712;2023-04-15T00:17:12;7.20;74.80
25352;DHT22;13304;48.464;8.712;2023-04-15T00:19:37;7.10;74.90
25352;DHT22;13304;48.464;8.712;2023-04-15T00:22:03;7.10;74.90
25352;DHT22;13304;48.464;8.712;2023-04-15T00:24:29;7.10;75.00
25352;DHT22;13304;48.464;8.712;2023-04-15T00:26:56;7.10;75.10
25352;DHT22;13304;48.464;8.712;2023-04-15T00:29:22;7.10;74.90
25352;DHT22;13304;48.464;8.712;2023-04-15T00:31:51;7.10;74.80
25352;DHT22;13304;48.464;8.712;2023-04-15T00:34:17;7.10;75.20
25352;DHT22;13304;48.464;8.712;2023-04-15T00:36:43;7.10;75.20
25352;DHT22;13304;48.464;8.712;2023-04-15T00:39:09;7.00;76.00
25352;DHT22;13304;48.464;8.712;2023-04-15T00:41:35;7.00;75.40
25352;DHT22;13304;48.464;8.712;2023-04-15T00:44:05;7.00;75.30
25352;DHT22;13304;48.464;8.712;2023-04-15T00:46:32;6.90;75.20
25352;DHT22;13304;48.464;8.712;2023-04-15T00:49:00;6.90;75.20
25352;DHT22;13304;48.464;8.712;2023-04-15T00:51:28;6.90;75.40
25352;DHT22;13304;48.464;8.712;2023-04-15T00:53:54;6.80;75.60
25352;DHT22;13304;48.464;8.712;2023-04-15T00:56:20;6.80;75.60
25352;DHT22;13304;48.464;8.712;2023-04-15T00:58:50;6.80;75.90
25352;DHT22;13304;48.464;8.712;2023-04-15T01:01:19;6.70;75.80
25352;DHT22;13304;48.464;8.712;2023-04-15T01:03:46;6.70;76.00
25352;DHT22;13304;48.464;8.712;2023-04-15T01:06:13;6.70;75.80
25352;DHT22;13304;48.464;8.712;2023-04-15T01:08:38;6.70;75.80
25352;DHT22;13304;48.464;8.712;2023-04-15T01:11:05;6.70;75.70
25352;DHT22;13304;48.464;8.712;2023-04-15T01:13:33;6.70;75.70
25352;DHT22;13304;48.464;8.712;2023-04-15T01:15:59;6.70;75.60
25352;DHT22;13304;48.464;8.712;2023-04-15T01:18:26;6.70;76.40
25352;DHT22;13304;48.464;8.712;2023-04-15T01:20:52;6.70;75.70
25352;DHT22;13304;48.464;8.712;2023-04-15T01:23:19;6.70;75.80
25352;DHT22;13304;48.464;8.712;2023-04-15T01:25:46;6.70;75.80
25352;DHT22;13304;48.464;8.712;2023-04-15T01:28:14;6.80;75.90
25352;DHT22;13304;48.464;8.712;2023-04-15T01:30:39;6.80;75.80
25352;DHT22;13304;48.464;8.712;2023-04-15T01:33:05;6.80;75.70
25352;DHT22;13304;48.464;8.712;2023-04-15T01:35:32;6.70;75.50
25352;DHT22;13304;48.464;8.712;2023-04-15T01:38:15;6.80;75.70
25352;DHT22;13304;48.464;8.712;2023-04-15T01:40:41;6.70;75.60
25352;DHT22;13304;48.464;8.712;2023-04-15T01:43:07;6.70;75.40
25352;DHT22;13304;48.464;8.712;2023-04-15T01:45:33;6.70;75.10
25352;DHT22;13304;48.464;8.712;2023-04-15T01:47:59;6.70;75.10
25352;DHT22;13304;48.464;8.712;2023-04-15T01:50:25;6.60;75.10
25352;DHT22;13304;48.464;8.712;2023-04-15T01:52:51;6.60;75.30
25352;DHT22;13304;48.464;8.712;2023-04-15T01:55:18;6.50;75.40
25352;DHT22;13304;48.464;8.712;2023-04-15T01:57:44;6.50;75.60
25352;DHT22;13304;48.464;8.712;2023-04-15T02:00:11;6.50;75.70
25352;DHT22;13304;48.464;8.712;2023-04-15T02:02:36;6.50;75.70
25352;DHT22;13304;48.464;8.712;2023-04-15T02:05:02;6.50;75.60
25352;DHT22;13304;48.464;8.712;2023-04-15T02:07:30;6.40;75.60
25352;DHT22;13304;48.464;8.712;2023-04-15T02:09:56;6.40;75.60
25352;DHT22;13304;48.464;8.712;2023-04-15T02:12:22;6.40;75.70
25352;DHT22;13304;48.464;8.712;2023-04-15T02:14:48;6.40;75.90
25352;DHT22;13304;48.464;8.712;2023-04-15T02:17:14;6.40;75.80
25352;DHT22;13304;48.464;8.712;2023-04-15T02:19:40;6.40;75.90
25352;DHT22;13304;48.464;8.712;2023-04-15T02:22:07;6.40;76.00
25352;DHT22;13304;48.464;8.712;2023-04-15T02:24:34;6.40;76.00
25352;DHT22;13304;48.464;8.712;2023-04-15T02:26:59;6.30;76.20
25352;DHT22;13304;48.464;8.712;2023-04-15T02:29:26;6.30;76.30
25352;DHT22;13304;48.464;8.712;2023-04-15T02:31:52;6.30;77.10
25352;DHT22;13304;48.464;8.712;2023-04-15T02:34:17;6.20;76.30
25352;DHT22;13304;48.464;8.712;2023-04-15T02:36:43;6.20;76.30
25352;DHT22;13304;48.464;8.712;2023-04-15T02:39:10;6.20;76.50
25352;DHT22;13304;48.464;8.712;2023-04-15T02:41:37;6.10;76.60
25352;DHT22;13304;48.464;8.712;2023-04-15T02:44:02;6.10;76.70
25352;DHT22;13304;48.464;8.712;2023-04-15T02:46:28;6.10;76.90
25352;DHT22;13304;48.464;8.712;2023-04-15T02:48:54;6.00;76.80
25352;DHT22;13304;48.464;8.712;2023-04-15T02:51:20;6.00;77.00
25352;DHT22;13304;48.464;8.712;2023-04-15T02:53:48;6.00;76.80
25352;DHT22;13304;48.464;8.712;2023-04-15T02:56:14;6.00;76.80
25352;DHT22;13304;48.464;8.712;2023-04-15T02:58:42;6.00;76.90
25352;DHT22;13304;48.464;8.712;2023-04-15T03:01:10;5.90;76.90
25352;DHT22;13304;48.464;8.712;2023-04-15T03:03:36;5.90;76.80
25352;DHT22;13304;48.464;8.712;2023-04-15T03:06:02;5.90;76.80
25352;DHT22;13304;48.464;8.712;2023-04-15T03:08:27;5.90;76.70
25352;DHT22;13304;48.464;8.712;2023-04-15T03:10:53;5.90;76.60
25352;DHT22;13304;48.464;8.712;2023-04-15T03:13:19;5.80;76.50
25352;DHT22;13304;48.464;8.712;2023-04-15T03:15:47;5.80;76.70
25352;DHT22;13304;48.464;8.712;2023-04-15T03:18:13;5.80;76.90
25352;DHT22;13304;48.464;8.712;2023-04-15T03:20:39;5.80;77.10
25352;DHT22;13304;48.464;8.712;2023-04-15T03:23:04;5.80;77.10
25352;DHT22;13304;48.464;8.712;2023-04-15T03:25:30;5.80;77.20
25352;DHT22;13304;48.464;8.712;2023-04-15T03:27:56;5.80;77.50
25352;DHT22;13304;48.464;8.712;2023-04-15T03:30:22;5.70;77.60
25352;DHT22;13304;48.464;8.712;2023-04-15T03:32:47;5.70;77.50
25352;DHT22;13304;48.464;8.712;2023-04-15T03:35:13;5.70;77.50
25352;DHT22;13304;48.464;8.712;2023-04-15T03:37:38;5.70;77.70
25352;DHT22;13304;48.464;8.712;2023-04-15T03:40:05;5.70;77.60
25352;DHT22;13304;48.464;8.712;2023-04-15T03:42:30;5.60;77.60
25352;DHT22;13304;48.464;8.712;2023-04-15T03:44:56;5.60;77.60
25352;DHT22;13304;48.464;8.712;2023-04-15T03:47:22;5.50;77.50
25352;DHT22;13304;48.464;8.712;2023-04-15T03:49:48;5.50;77.70
25352;DHT22;13304;48.464;8.712;2023-04-15T03:52:13;5.50;78.00
25352;DHT22;13304;48.464;8.712;2023-04-15T03:54:39;5.40;78.20
25352;DHT22;13304;48.464;8.712;2023-04-15T03:57:05;5.40;78.40
25352;DHT22;13304;48.464;8.712;2023-04-15T03:59:31;5.40;78.50
25352;DHT22;13304;48.464;8.712;2023-04-15T04:01:56;5.30;78.60
25352;DHT22;13304;48.464;8.712;2023-04-15T04:04:22;5.30;79.80
25352;DHT22;13304;48.464;8.712;2023-04-15T04:06:48;5.30;79.30
25352;DHT22;13304;48.464;8.712;2023-04-15T04:09:14;5.20;79.40
25352;DHT22;13304;48.464;8.712;2023-04-15T04:11:39;5.20;79.60
25352;DHT22;13304;48.464;8.712;2023-04-15T04:14:06;5.10;79.60
25352;DHT22;13304;48.464;8.712;2023-04-15T04:16:32;5.10;79.90
25352;DHT22;13304;48.464;8.712;2023-04-15T04:18:57;5.00;80.00
25352;DHT22;13304;48.464;8.712;2023-04-15T04:21:23;5.00;80.20
25352;DHT22;13304;48.464;8.712;2023-04-15T04:23:49;5.00;80.10
25352;DHT22;13304;48.464;8.712;2023-04-15T04:26:15;5.00;79.80
25352;DHT22;13304;48.464;8.712;2023-04-15T04:28:41;5.00;79.60
25352;DHT22;13304;48.464;8.712;2023-04-15T04:31:07;5.00;79.50
25352;DHT22;13304;48.464;8.712;2023-04-15T04:33:32;5.00;79.20
25352;DHT22;13304;48.464;8.712;2023-04-15T04:35:58;5.10;79.30
25352;DHT22;13304;48.464;8.712;2023-04-15T04:38:24;5.10;79.30
25352;DHT22;13304;48.464;8.712;2023-04-15T04:40:50;5.10;79.30
25352;DHT22;13304;48.464;8.712;2023-04-15T04:43:16;5.10;79.30
25352;DHT22;13304;48.464;8.712;2023-04-15T04:45:41;5.10;79.40
25352;DHT22;13304;48.464;8.712;2023-04-15T04:48:07;5.20;79.40
25352;DHT22;13304;48.464;8.712;2023-04-15T04:50:35;5.20;79.60
25352;DHT22;13304;48.464;8.712;2023-04-15T04:53:01;5.20;79.90
25352;DHT22;13304;48.464;8.712;2023-04-15T04:55:27;5.20;80.00
25352;DHT22;13304;48.464;8.712;2023-04-15T04:57:53;5.20;79.80
25352;DHT22;13304;48.464;8.712;2023-04-15T05:00:18;5.20;80.10
25352;DHT22;13304;48.464;8.712;2023-04-15T05:02:44;5.20;80.10
25352;DHT22;13304;48.464;8.712;2023-04-15T05:05:11;5.20;80.00
25352;DHT22;13304;48.464;8.712;2023-04-15T05:07:37;5.20;79.90
25352;DHT22;13304;48.464;8.712;2023-04-15T05:10:04;5.20;80.00
25352;DHT22;13304;48.464;8.712;2023-04-15T05:12:30;5.20;80.20
25352;DHT22;13304;48.464;8.712;2023-04-15T05:14:56;5.20;80.30
25352;DHT22;13304;48.464;8.712;2023-04-15T05:17:22;5.20;80.00
25352;DHT22;13304;48.464;8.712;2023-04-15T05:19:48;5.20;80.20
25352;DHT22;13304;48.464;8.712;2023-04-15T05:22:14;5.20;80.40
25352;DHT22;13304;48.464;8.712;2023-04-15T05:24:40;5.20;80.40
25352;DHT22;13304;48.464;8.712;2023-04-15T05:27:05;5.20;80.40
25352;DHT22;13304;48.464;8.712;2023-04-15T05:29:33;5.20;80.60
25352;DHT22;13304;48.464;8.712;2023-04-15T05:31:59;5.20;80.70
25352;DHT22;13304;48.464;8.712;2023-04-15T05:34:25;5.20;80.90
25352;DHT22;13304;48.464;8.712;2023-04-15T05:36:50;5.30;81.00
25352;DHT22;13304;48.464;8.712;2023-04-15T05:39:17;5.30;81.20
25352;DHT22;13304;48.464;8.712;2023-04-15T05:41:43;5.40;81.20
25352;DHT22;13304;48.464;8.712;2023-04-15T05:44:09;5.40;81.60
25352;DHT22;13304;48.464;8.712;2023-04-15T05:46:35;5.40;81.60
25352;DHT22;13304;48.464;8.712;2023-04-15T05:49:01;5.50;81.80
25352;DHT22;13304;48.464;8.712;2023-04-15T05:51:27;5.50;81.90
25352;DHT22;13304;48.464;8.712;2023-04-15T05:53:53;5.50;81.70
25352;DHT22;13304;48.464;8.712;2023-04-15T05:56:18;5.60;81.80
25352;DHT22;13304;48.464;8.712;2023-04-15T05:58:45;5.60;81.80
25352;DHT22;13304;48.464;8.712;2023-04-15T06:01:11;5.70;82.00
25352;DHT22;13304;48.464;8.712;2023-04-15T06:03:37;5.70;81.90
25352;DHT22;13304;48.464;8.712;2023-04-15T06:06:03;5.80;81.90
25352;DHT22;13304;48.464;8.712;2023-04-15T06:08:29;5.80;81.90
25352;DHT22;13304;48.464;8.712;2023-04-15T06:10:55;5.90;82.00
25352;DHT22;13304;48.464;8.712;2023-04-15T06:13:20;5.90;82.10
25352;DHT22;13304;48.464;8.712;2023-04-15T06:15:47;6.00;82.10
25352;DHT22;13304;48.464;8.712;2023-04-15T06:18:13;6.00;81.90
25352;DHT22;13304;48.464;8.712;2023-04-15T06:20:39;6.10;81.90
25352;DHT22;13304;48.464;8.712;2023-04-15T06:23:06;6.10;82.00
25352;DHT22;13304;48.464;8.712;2023-04-15T06:25:31;6.20;82.00
25352;DHT22;13304;48.464;8.712;2023-04-15T06:27:57;6.20;82.00
25352;DHT22;13304;48.464;8.712;2023-04-15T06:30:23;6.20;81.90
25352;DHT22;13304;48.464;8.712;2023-04-15T06:32:48;6.30;81.90
25352;DHT22;13304;48.464;8.712;2023-04-15T06:35:14;6.30;81.90
25352;DHT22;13304;48.464;8.712;2023-04-15T06:37:40;6.40;82.00
25352;DHT22;13304;48.464;8.712;2023-04-15T06:40:06;6.50;82.30
25352;DHT22;13304;48.464;8.712;2023-04-15T06:42:33;6.50;82.40
25352;DHT22;13304;48.464;8.712;2023-04-15T06:44:58;6.50;82.40
25352;DHT22;13304;48.464;8.712;2023-04-15T06:47:24;6.60;82.50
25352;DHT22;13304;48.464;8.712;2023-04-15T06:49:50;6.70;82.40
25352;DHT22;13304;48.464;8.712;2023-04-15T06:52:16;6.80;82.20
25352;DHT22;13304;48.464;8.712;2023-04-15T06:54:42;6.90;82.20
25352;DHT22;13304;48.464;8.712;2023-04-15T06:57:08;7.00;82.20
25352;DHT22;13304;48.464;8.712;2023-04-15T06:59:34;7.10;82.20
25352;DHT22;13304;48.464;8.712;2023-04-15T07:02:00;7.20;82.10
25352;DHT22;13304;48.464;8.712;2023-04-15T07:04:26;7.40;81.80
25352;DHT22;13304;48.464;8.712;2023-04-15T07:06:52;7.50;82.00
25352;DHT22;13304;48.464;8.712;2023-04-15T07:09:21;7.60;81.90
25352;DHT22;13304;48.464;8.712;2023-04-15T07:11:46;7.70;81.90
25352;DHT22;13304;48.464;8.712;2023-04-15T07:14:12;7.90;81.70
25352;DHT22;13304;48.464;8.712;2023-04-15T07:16:38;8.00;81.90
25352;DHT22;13304;48.464;8.712;2023-04-15T07:19:04;8.10;81.80
25352;DHT22;13304;48.464;8.712;2023-04-15T07:21:30;8.20;81.60
25352;DHT22;13304;48.464;8.712;2023-04-15T07:23:56;8.40;81.60
25352;DHT22;13304;48.464;8.712;2023-04-15T07:26:23;8.50;81.60
25352;DHT22;13304;48.464;8.712;2023-04-15T07:28:49;8.60;81.50
25352;DHT22;13304;48.464;8.712;2023-04-15T07:31:15;8.70;81.40
25352;DHT22;13304;48.464;8.712;2023-04-15T07:33:41;8.90;81.10
25352;DHT22;13304;48.464;8.712;2023-04-15T07:36:08;9.00;80.70
25352;DHT22;13304;48.464;8.712;2023-04-15T07:38:33;9.00;79.80
25352;DHT22;13304;48.464;8.712;2023-04-15T07:40:59;9.10;79.90
25352;DHT22;13304;48.464;8.712;2023-04-15T07:43:25;9.20;79.50
25352;DHT22;13304;48.464;8.712;2023-04-15T07:45:51;9.30;79.90
25352;DHT22;13304;48.464;8.712;2023-04-15T07:48:17;9.40;79.90
25352;DHT22;13304;48.464;8.712;2023-04-15T07:50:43;9.50;79.90
25352;DHT22;13304;48.464;8.712;2023-04-15T07:53:08;9.60;80.20
25352;DHT22;13304;48.464;8.712;2023-04-15T07:55:34;9.60;80.00
25352;DHT22;13304;48.464;8.712;2023-04-15T07:58:00;9.70;79.50
25352;DHT22;13304;48.464;8.712;2023-04-15T08:00:25;9.80;79.50
25352;DHT22;13304;48.464;8.712;2023-04-15T08:02:51;9.90;79.20
25352;DHT22;13304;48.464;8.712;2023-04-15T08:05:18;10.00;78.80
25352;DHT22;13304;48.464;8.712;2023-04-15T08:07:44;10.10;79.30
25352;DHT22;13304;48.464;8.712;2023-04-15T08:10:11;10.20;79.40
25352;DHT22;13304;48.464;8.712;2023-04-15T08:12:37;10.20;78.60
25352;DHT22;13304;48.464;8.712;2023-04-15T08:15:03;10.30;78.60
25352;DHT22;13304;48.464;8.712;2023-04-15T08:17:29;10.40;77.60
25352;DHT22;13304;48.464;8.712;2023-04-15T08:19:55;10.40;76.70
25352;DHT22;13304;48.464;8.712;2023-04-15T08:22:20;10.50;77.20
25352;DHT22;13304;48.464;8.712;2023-04-15T08:24:47;10.60;77.00
25352;DHT22;13304;48.464;8.712;2023-04-15T08:27:12;10.60;77.50
25352;DHT22;13304;48.464;8.712;2023-04-15T08:29:38;10.70;77.60
25352;DHT22;13304;48.464;8.712;2023-04-15T08:32:05;10.70;77.70
25352;DHT22;13304;48.464;8.712;2023-04-15T08:34:32;10.70;78.10
25352;DHT22;13304;48.464;8.712;2023-04-15T08:36:58;10.70;78.00
25352;DHT22;13304;48.464;8.712;2023-04-15T08:39:23;10.80;78.30
25352;DHT22;13304;48.464;8.712;2023-04-15T08:42:00;10.80;77.90
25352;DHT22;13304;48.464;8.712;2023-04-15T08:44:34;10.90;77.90
25352;DHT22;13304;48.464;8.712;2023-04-15T08:47:07;11.00;78.50
25352;DHT22;13304;48.464;8.712;2023-04-15T08:49:36;11.00;78.50
25352;DHT22;13304;48.464;8.712;2023-04-15T08:52:03;11.10;78.60
25352;DHT22;13304;48.464;8.712;2023-04-15T08:54:29;11.20;78.60
25352;DHT22;13304;48.464;8.712;2023-04-15T08:56:57;11.40;79.00
25352;DHT22;13304;48.464;8.712;2023-04-15T08:59:23;11.40;78.40
25352;DHT22;13304;48.464;8.712;2023-04-15T09:01:49;11.50;78.60
25352;DHT22;13304;48.464;8.712;2023-04-15T09:04:16;11.60;77.50
25352;DHT22;13304;48.464;8.712;2023-04-15T09:06:42;11.70;77.70
25352;DHT22;13304;48.464;8.712;2023-04-15T09:09:08;11.80;76.80
25352;DHT22;13304;48.464;8.712;2023-04-15T09:11:34;11.80;76.90
25352;DHT22;13304;48.464;8.712;2023-04-15T09:14:00;11.90;76.60
25352;DHT22;13304;48.464;8.712;2023-04-15T09:16:26;12.00;76.40
25352;DHT22;13304;48.464;8.712;2023-04-15T09:18:53;12.00;75.70
25352;DHT22;13304;48.464;8.712;2023-04-15T09:21:18;12.10;76.10
25352;DHT22;13304;48.464;8.712;2023-04-15T09:23:59;12.10;75.40
25352;DHT22;13304;48.464;8.712;2023-04-15T09:26:34;12.20;76.10
25352;DHT22;13304;48.464;8.712;2023-04-15T09:29:10;12.30;74.80
25352;DHT22;13304;48.464;8.712;2023-04-15T09:31:39;12.30;74.20
25352;DHT22;13304;48.464;8.712;2023-04-15T09:34:06;12.40;75.30
25352;DHT22;13304;48.464;8.712;2023-04-15T09:39:13;12.60;72.50
25352;DHT22;13304;48.464;8.712;2023-04-15T09:41:39;12.70;71.40
25352;DHT22;13304;48.464;8.712;2023-04-15T09:44:06;12.70;71.70
25352;DHT22;13304;48.464;8.712;2023-04-15T09:46:42;12.80;68.50
25352;DHT22;13304;48.464;8.712;2023-04-15T09:49:09;12.80;67.30
25352;DHT22;13304;48.464;8.712;2023-04-15T09:51:35;12.90;67.80
25352;DHT22;13304;48.464;8.712;2023-04-15T09:54:02;12.90;68.00
25352;DHT22;13304;48.464;8.712;2023-04-15T09:56:35;13.00;67.90
25352;DHT22;13304;48.464;8.712;2023-04-15T09:59:06;13.10;66.80
25352;DHT22;13304;48.464;8.712;2023-04-15T10:01:33;13.20;66.50
25352;DHT22;13304;48.464;8.712;2023-04-15T10:04:02;13.20;65.10
25352;DHT22;13304;48.464;8.712;2023-04-15T10:06:29;13.20;64.30
25352;DHT22;13304;48.464;8.712;2023-04-15T10:08:56;13.30;65.10
25352;DHT22;13304;48.464;8.712;2023-04-15T10:11:22;13.40;64.70
25352;DHT22;13304;48.464;8.712;2023-04-15T10:13:49;13.50;64.50
25352;DHT22;13304;48.464;8.712;2023-04-15T10:16:18;13.60;65.90
25352;DHT22;13304;48.464;8.712;2023-04-15T10:18:52;13.60;62.90
25352;DHT22;13304;48.464;8.712;2023-04-15T10:21:20;13.60;62.10
25352;DHT22;13304;48.464;8.712;2023-04-15T10:23:47;13.80;62.70
25352;DHT22;13304;48.464;8.712;2023-04-15T10:26:13;13.80;62.20
25352;DHT22;13304;48.464;8.712;2023-04-15T10:28:42;13.90;62.90
25352;DHT22;13304;48.464;8.712;2023-04-15T10:31:11;13.90;60.00
25352;DHT22;13304;48.464;8.712;2023-04-15T10:33:41;13.90;57.40
25352;DHT22;13304;48.464;8.712;2023-04-15T10:36:07;13.90;57.00
25352;DHT22;13304;48.464;8.712;2023-04-15T10:38:40;14.00;58.20
25352;DHT22;13304;48.464;8.712;2023-04-15T10:41:22;14.10;57.90
25352;DHT22;13304;48.464;8.712;2023-04-15T10:43:53;14.10;57.70
25352;DHT22;13304;48.464;8.712;2023-04-15T10:46:21;14.10;56.40
25352;DHT22;13304;48.464;8.712;2023-04-15T10:48:52;14.20;56.60
25352;DHT22;13304;48.464;8.712;2023-04-15T10:51:29;14.20;55.80
25352;DHT22;13304;48.464;8.712;2023-04-15T10:53:58;14.20;54.70
25352;DHT22;13304;48.464;8.712;2023-04-15T10:56:25;14.30;55.70
25352;DHT22;13304;48.464;8.712;2023-04-15T10:58:52;14.40;56.10
25352;DHT22;13304;48.464;8.712;2023-04-15T11:01:19;14.40;56.70
25352;DHT22;13304;48.464;8.712;2023-04-15T11:03:48;14.40;56.00
25352;DHT22;13304;48.464;8.712;2023-04-15T11:06:16;14.40;53.00
25352;DHT22;13304;48.464;8.712;2023-04-15T11:08:56;14.60;54.90
25352;DHT22;13304;48.464;8.712;2023-04-15T11:14:14;14.70;56.30
25352;DHT22;13304;48.464;8.712;2023-04-15T11:16:43;14.70;54.80
25352;DHT22;13304;48.464;8.712;2023-04-15T11:19:11;14.70;52.70
25352;DHT22;13304;48.464;8.712;2023-04-15T11:21:37;14.80;54.70
25352;DHT22;13304;48.464;8.712;2023-04-15T11:24:03;14.80;52.40
25352;DHT22;13304;48.464;8.712;2023-04-15T11:26:29;14.80;52.00
25352;DHT22;13304;48.464;8.712;2023-04-15T11:28:54;14.80;51.40
25352;DHT22;13304;48.464;8.712;2023-04-15T11:31:20;14.80;51.20
25352;DHT22;13304;48.464;8.712;2023-04-15T11:33:59;14.90;50.70
25352;DHT22;13304;48.464;8.712;2023-04-15T11:36:27;14.90;51.80
25352;DHT22;13304;48.464;8.712;2023-04-15T11:38:53;14.90;53.20
25352;DHT22;13304;48.464;8.712;2023-04-15T11:41:20;14.90;51.50
25352;DHT22;13304;48.464;8.712;2023-04-15T11:43:46;14.90;51.20
25352;DHT22;13304;48.464;8.712;2023-04-15T11:46:12;14.90;49.60
25352;DHT22;13304;48.464;8.712;2023-04-15T11:48:41;15.00;51.30
25352;DHT22;13304;48.464;8.712;2023-04-15T11:51:08;15.00;50.00
25352;DHT22;13304;48.464;8.712;2023-04-15T11:53:44;15.10;51.80
25352;DHT22;13304;48.464;8.712;2023-04-15T11:56:19;15.10;51.50
25352;DHT22;13304;48.464;8.712;2023-04-15T11:58:46;15.10;51.60
25352;DHT22;13304;48.464;8.712;2023-04-15T12:01:12;15.20;53.10
25352;DHT22;13304;48.464;8.712;2023-04-15T12:03:42;15.30;51.10
25352;DHT22;13304;48.464;8.712;2023-04-15T12:06:17;15.30;50.40
25352;DHT22;13304;48.464;8.712;2023-04-15T12:13:57;15.40;50.40
25352;DHT22;13304;48.464;8.712;2023-04-15T12:16:24;15.40;48.40
25352;DHT22;13304;48.464;8.712;2023-04-15T12:18:51;15.50;49.60
25352;DHT22;13304;48.464;8.712;2023-04-15T12:21:21;15.50;49.00
25352;DHT22;13304;48.464;8.712;2023-04-15T12:23:54;15.50;50.10
25352;DHT22;13304;48.464;8.712;2023-04-15T12:26:33;15.50;49.40
25352;DHT22;13304;48.464;8.712;2023-04-15T12:29:06;15.50;49.00
25352;DHT22;13304;48.464;8.712;2023-04-15T12:31:36;15.50;49.50
25352;DHT22;13304;48.464;8.712;2023-04-15T12:34:08;15.60;49.70
25352;DHT22;13304;48.464;8.712;2023-04-15T12:36:34;15.60;48.40
25352;DHT22;13304;48.464;8.712;2023-04-15T12:39:03;15.60;48.90
25352;DHT22;13304;48.464;8.712;2023-04-15T12:41:30;15.60;50.00
25352;DHT22;13304;48.464;8.712;2023-04-15T12:43:55;15.60;48.80
25352;DHT22;13304;48.464;8.712;2023-04-15T12:46:22;15.60;49.30
25352;DHT22;13304;48.464;8.712;2023-04-15T12:48:48;15.60;47.80
25352;DHT22;13304;48.464;8.712;2023-04-15T12:51:14;15.60;49.10
25352;DHT22;13304;48.464;8.712;2023-04-15T12:53:40;15.60;48.90
25352;DHT22;13304;48.464;8.712;2023-04-15T12:56:06;15.60;47.60
25352;DHT22;13304;48.464;8.712;2023-04-15T12:58:32;15.70;48.20
25352;DHT22;13304;48.464;8.712;2023-04-15T13:00:58;15.70;47.70
25352;DHT22;13304;48.464;8.712;2023-04-15T13:03:24;15.70;46.80
25352;DHT22;13304;48.464;8.712;2023-04-15T13:05:49;15.80;48.20
25352;DHT22;13304;48.464;8.712;2023-04-15T13:08:16;15.80;48.00
25352;DHT22;13304;48.464;8.712;2023-04-15T13:10:42;15.80;48.20
25352;DHT22;13304;48.464;8.712;2023-04-15T13:13:08;15.80;47.80
25352;DHT22;13304;48.464;8.712;2023-04-15T13:15:34;15.80;47.60
25352;DHT22;13304;48.464;8.712;2023-04-15T13:17:59;15.80;47.30
25352;DHT22;13304;48.464;8.712;2023-04-15T13:20:25;15.70;47.80
25352;DHT22;13304;48.464;8.712;2023-04-15T13:22:52;15.80;48.60
25352;DHT22;13304;48.464;8.712;2023-04-15T13:25:18;15.80;48.80
25352;DHT22;13304;48.464;8.712;2023-04-15T13:27:44;15.80;49.40
25352;DHT22;13304;48.464;8.712;2023-04-15T13:30:10;15.90;49.60
25352;DHT22;13304;48.464;8.712;2023-04-15T13:32:36;15.90;47.50
25352;DHT22;13304;48.464;8.712;2023-04-15T13:35:02;15.90;47.90
25352;DHT22;13304;48.464;8.712;2023-04-15T13:37:29;15.80;46.70
25352;DHT22;13304;48.464;8.712;2023-04-15T13:39:56;15.80;47.60
25352;DHT22;13304;48.464;8.712;2023-04-15T13:42:22;15.80;48.20
25352;DHT22;13304;48.464;8.712;2023-04-15T13:44:51;15.80;46.80
25352;DHT22;13304;48.464;8.712;2023-04-15T13:47:20;15.90;48.60
25352;DHT22;13304;48.464;8.712;2023-04-15T13:49:46;15.90;49.60
25352;DHT22;13304;48.464;8.712;2023-04-15T13:52:12;15.90;48.40
25352;DHT22;13304;48.464;8.712;2023-04-15T13:54:38;15.90;48.30
25352;DHT22;13304;48.464;8.712;2023-04-15T13:57:05;15.90;48.00
25352;DHT22;13304;48.464;8.712;2023-04-15T13:59:32;15.90;48.70
25352;DHT22;13304;48.464;8.712;2023-04-15T14:01:59;15.90;49.50
25352;DHT22;13304;48.464;8.712;2023-04-15T14:04:25;15.90;49.60
25352;DHT22;13304;48.464;8.712;2023-04-15T14:06:51;15.90;49.90
25352;DHT22;13304;48.464;8.712;2023-04-15T14:09:16;15.90;49.90
25352;DHT22;13304;48.464;8.712;2023-04-15T14:11:42;15.90;50.20
25352;DHT22;13304;48.464;8.712;2023-04-15T14:14:08;15.90;50.60
25352;DHT22;13304;48.464;8.712;2023-04-15T14:16:34;15.90;50.00
25352;DHT22;13304;48.464;8.712;2023-04-15T14:19:01;15.90;50.00
25352;DHT22;13304;48.464;8.712;2023-04-15T14:21:26;15.80;50.40
25352;DHT22;13304;48.464;8.712;2023-04-15T14:23:53;15.80;50.10
25352;DHT22;13304;48.464;8.712;2023-04-15T14:26:18;15.80;48.70
25352;DHT22;13304;48.464;8.712;2023-04-15T14:28:44;15.80;49.20
25352;DHT22;13304;48.464;8.712;2023-04-15T14:31:11;15.80;50.10
25352;DHT22;13304;48.464;8.712;2023-04-15T14:33:38;15.70;49.20
25352;DHT22;13304;48.464;8.712;2023-04-15T14:36:04;15.70;49.10
25352;DHT22;13304;48.464;8.712;2023-04-15T14:38:30;15.70;50.50
25352;DHT22;13304;48.464;8.712;2023-04-15T14:40:58;15.70;51.00
25352;DHT22;13304;48.464;8.712;2023-04-15T14:43:23;15.60;48.90
25352;DHT22;13304;48.464;8.712;2023-04-15T14:45:49;15.50;47.80
25352;DHT22;13304;48.464;8.712;2023-04-15T14:48:16;15.50;48.10
25352;DHT22;13304;48.464;8.712;2023-04-15T14:50:42;15.50;49.00
25352;DHT22;13304;48.464;8.712;2023-04-15T14:53:08;15.50;49.10
25352;DHT22;13304;48.464;8.712;2023-04-15T14:55:33;15.50;49.00
25352;DHT22;13304;48.464;8.712;2023-04-15T14:57:59;15.50;49.50
25352;DHT22;13304;48.464;8.712;2023-04-15T15:00:26;15.50;49.90
25352;DHT22;13304;48.464;8.712;2023-04-15T15:02:52;15.50;49.90
25352;DHT22;13304;48.464;8.712;2023-04-15T15:05:18;15.50;50.10
25352;DHT22;13304;48.464;8.712;2023-04-15T15:07:44;15.50;49.60
25352;DHT22;13304;48.464;8.712;2023-04-15T15:10:09;15.40;49.20
25352;DHT22;13304;48.464;8.712;2023-04-15T15:12:35;15.40;49.30
25352;DHT22;13304;48.464;8.712;2023-04-15T15:15:02;15.40;49.10
25352;DHT22;13304;48.464;8.712;2023-04-15T15:17:28;15.30;48.90
25352;DHT22;13304;48.464;8.712;2023-04-15T15:19:54;15.30;50.10
25352;DHT22;13304;48.464;8.712;2023-04-15T15:22:20;15.30;50.50
25352;DHT22;13304;48.464;8.712;2023-04-15T15:24:45;15.20;49.90
25352;DHT22;13304;48.464;8.712;2023-04-15T15:27:11;15.10;50.20
25352;DHT22;13304;48.464;8.712;2023-04-15T15:29:37;15.00;50.30
25352;DHT22;13304;48.464;8.712;2023-04-15T15:32:03;15.00;50.70
25352;DHT22;13304;48.464;8.712;2023-04-15T15:34:28;14.90;50.70
25352;DHT22;13304;48.464;8.712;2023-04-15T15:36:54;14.90;50.50
25352;DHT22;13304;48.464;8.712;2023-04-15T15:39:22;14.80;50.50
25352;DHT22;13304;48.464;8.712;2023-04-15T15:41:48;14.70;49.90
25352;DHT22;13304;48.464;8.712;2023-04-15T15:44:14;14.70;51.10
25352;DHT22;13304;48.464;8.712;2023-04-15T15:46:40;14.70;51.50